Drayton Valley, Canada
Current Conditions -  °F | °C
As of 7:00 PM on Wednesday 22 Oct 2014 (Local Time) from CZVL Reporting Station
Broken Clouds Broken Clouds  
Wind Chill: 54°   Ceiling: 19000
Heat Index: 54°   Visibility: 9mi
Dew Point: 30°   Wind: 9mph
Humidity: 41%   Direction: 160°SSE
Pressure: 29.56"   Gusts: NA
Location:  53.22°N, 114.98°W
Report Text: CZVL 230100Z AUTO 16008KT 9SM BKN190 BKN210 12/M01 A2956 RMK SLP027 DENSITY ALT 2800FT
Loading
Personal Weather Stations






























Interactive Weather Map
Tropical Storm Tracking
New forecast layout! Learn more

10-Day Weather Forecast

Advertisements
Track Severe Weather on mobile